createdAt,value
2022-10-29T00:02:03.371Z,4.83
2022-10-29T00:04:36.163Z,5.37
2022-10-29T00:07:11.408Z,4.93
2022-10-29T00:09:44.036Z,4.90
2022-10-29T00:12:19.721Z,4.47
2022-10-29T00:14:53.754Z,5.27
2022-10-29T00:17:26.229Z,4.90
2022-10-29T00:19:58.789Z,5.03
2022-10-29T00:22:31.378Z,4.97
2022-10-29T00:25:04.230Z,5.27
2022-10-29T00:27:36.837Z,4.77
2022-10-29T00:30:12.318Z,4.97
2022-10-29T00:32:44.888Z,4.83
2022-10-29T00:35:17.462Z,5.40
2022-10-29T00:37:50.020Z,4.90
2022-10-29T00:40:23.162Z,6.17
2022-10-29T00:43:12.323Z,5.37
2022-10-29T00:45:59.664Z,5.30
2022-10-29T00:48:34.444Z,5.00
2022-10-29T00:51:09.811Z,5.10
2022-10-29T00:53:44.414Z,5.27
2022-10-29T00:56:17.399Z,4.97
2022-10-29T00:58:52.598Z,5.73
2022-10-29T01:01:26.917Z,4.77
2022-10-29T01:04:01.081Z,5.43
2022-10-29T01:06:34.098Z,6.17
2022-10-29T01:09:06.680Z,5.47
2022-10-29T01:11:42.672Z,5.17
2022-10-29T01:14:21.283Z,5.67
2022-10-29T01:16:57.598Z,5.33
2022-10-29T01:19:37.498Z,5.83
2022-10-29T01:22:13.998Z,5.70
2022-10-29T01:24:55.010Z,5.77
2022-10-29T01:27:41.063Z,5.87
2022-10-29T01:30:17.446Z,5.73
2022-10-29T01:32:56.995Z,5.93
2022-10-29T01:35:33.051Z,6.93
2022-10-29T01:38:13.371Z,5.70
2022-10-29T01:40:49.735Z,5.87
2022-10-29T01:43:26.630Z,5.47
2022-10-29T01:46:01.684Z,6.27
2022-10-29T01:48:43.759Z,6.37
2022-10-29T01:51:20.174Z,6.23
2022-10-29T01:53:53.534Z,6.20
2022-10-29T01:56:26.189Z,6.07
2022-10-29T01:58:59.970Z,5.57
2022-10-29T02:01:42.199Z,6.43
2022-10-29T02:04:22.833Z,6.97
2022-10-29T02:07:03.579Z,6.40
2022-10-29T02:09:40.291Z,6.33
2022-10-29T02:12:16.395Z,6.13
2022-10-29T02:14:51.282Z,6.30
2022-10-29T02:17:24.401Z,6.67
2022-10-29T02:19:58.364Z,7.10
2022-10-29T02:22:33.853Z,7.27
2022-10-29T02:25:07.997Z,6.70
2022-10-29T02:27:41.688Z,7.57
2022-10-29T02:30:14.600Z,7.10
2022-10-29T02:32:48.248Z,6.73
2022-10-29T02:35:22.246Z,7.53
2022-10-29T02:37:54.911Z,6.57
2022-10-29T02:40:27.545Z,6.40
2022-10-29T02:43:00.154Z,9.03
2022-10-29T02:45:32.916Z,6.93
2022-10-29T02:48:11.146Z,7.33
2022-10-29T02:50:45.160Z,7.00
2022-10-29T02:53:17.676Z,7.30
2022-10-29T02:55:50.437Z,6.83
2022-10-29T02:58:23.153Z,7.43
2022-10-29T03:00:55.754Z,6.97
2022-10-29T03:03:28.350Z,7.50
2022-10-29T03:06:02.393Z,6.93
2022-10-29T03:08:34.997Z,7.47
2022-10-29T03:11:07.610Z,7.30
2022-10-29T03:13:40.601Z,6.90
2022-10-29T03:16:13.218Z,6.43
2022-10-29T03:18:47.011Z,7.10
2022-10-29T03:21:20.941Z,7.30
2022-10-29T03:23:53.578Z,7.27
2022-10-29T03:26:26.182Z,7.43
2022-10-29T03:29:01.624Z,8.20
2022-10-29T03:31:35.754Z,7.13
2022-10-29T03:34:08.283Z,7.07
2022-10-29T03:36:42.250Z,7.27
2022-10-29T03:39:14.878Z,7.03
2022-10-29T03:41:47.435Z,7.50
2022-10-29T03:44:19.998Z,7.27
2022-10-29T03:46:55.456Z,9.40
2022-10-29T03:49:28.080Z,7.03
2022-10-29T03:52:02.162Z,7.60
2022-10-29T03:54:34.850Z,7.73
2022-10-29T03:57:07.693Z,7.23
2022-10-29T03:59:40.452Z,7.93
2022-10-29T04:02:13.128Z,8.10
2022-10-29T04:04:45.897Z,8.00
2022-10-29T04:07:22.339Z,7.97
2022-10-29T04:09:54.914Z,8.70
2022-10-29T04:12:27.426Z,8.23
2022-10-29T04:15:00.027Z,7.90
2022-10-29T04:17:32.755Z,7.27
2022-10-29T04:20:10.076Z,7.87
2022-10-29T04:28:49.668Z,8.00
2022-10-29T04:31:22.391Z,7.47
2022-10-29T04:33:54.946Z,8.10
2022-10-29T04:36:27.483Z,7.97
2022-10-29T04:39:01.540Z,7.93
2022-10-29T04:41:34.993Z,8.17
2022-10-29T04:44:07.614Z,7.80
2022-10-29T04:46:40.116Z,8.07
2022-10-29T04:49:12.797Z,8.10
2022-10-29T04:51:45.438Z,8.60
2022-10-29T04:54:19.354Z,7.90
2022-10-29T04:56:52.041Z,7.80
2022-10-29T04:59:24.816Z,7.90
2022-10-29T05:01:57.396Z,7.83
2022-10-29T05:04:30.384Z,7.53
2022-10-29T05:07:03.070Z,8.30
2022-10-29T05:09:37.170Z,9.03
2022-10-29T05:12:09.679Z,8.00
2022-10-29T05:14:44.708Z,8.93
2022-10-29T05:17:17.272Z,8.43
2022-10-29T05:19:49.871Z,8.07
2022-10-29T05:22:22.597Z,7.80
2022-10-29T05:24:56.526Z,8.50
2022-10-29T05:27:29.057Z,8.00
2022-10-29T05:30:01.655Z,8.27
2022-10-29T05:35:11.849Z,7.57
2022-10-29T05:37:44.401Z,8.17
2022-10-29T05:40:18.532Z,7.90
2022-10-29T05:42:51.382Z,8.63
2022-10-29T05:45:23.970Z,8.20
2022-10-29T05:47:57.159Z,7.87
2022-10-29T05:50:30.523Z,8.03
2022-10-29T05:53:04.519Z,8.33
2022-10-29T05:55:38.742Z,7.83
2022-10-29T05:58:12.379Z,7.93
2022-10-29T06:00:46.214Z,8.87
2022-10-29T06:03:20.196Z,7.87
2022-10-29T06:05:52.706Z,8.20
2022-10-29T06:08:25.346Z,9.03
2022-10-29T06:11:01.144Z,8.60
2022-10-29T06:13:33.866Z,8.73
2022-10-29T06:16:06.842Z,9.10
2022-10-29T06:18:39.409Z,8.37
2022-10-29T06:21:12.056Z,8.93
2022-10-29T06:23:44.649Z,8.97
2022-10-29T06:26:18.557Z,8.90
2022-10-29T06:28:53.522Z,8.83
2022-10-29T06:31:26.324Z,8.33
2022-10-29T06:33:59.112Z,8.80
2022-10-29T06:36:31.839Z,8.20
2022-10-29T06:39:16.765Z,8.90
2022-10-29T06:41:53.872Z,8.43
2022-10-29T06:44:26.494Z,9.10
2022-10-29T06:46:59.185Z,9.10
2022-10-29T06:49:31.881Z,8.83
2022-10-29T06:52:04.571Z,8.57
2022-10-29T06:54:37.087Z,8.57
2022-10-29T06:57:11.021Z,9.00
2022-10-29T06:59:43.552Z,8.77
2022-10-29T07:02:16.226Z,8.93
2022-10-29T07:04:48.951Z,8.53
2022-10-29T07:10:02.958Z,8.70
2022-10-29T07:12:41.623Z,8.23
2022-10-29T07:15:25.634Z,8.57
2022-10-29T07:18:01.200Z,9.13
2022-10-29T07:20:35.061Z,9.07
2022-10-29T07:23:08.065Z,8.67
2022-10-29T07:25:42.450Z,8.57
2022-10-29T07:28:26.422Z,8.47
2022-10-29T07:31:00.022Z,8.73
2022-10-29T07:33:32.930Z,8.50
2022-10-29T07:36:05.922Z,8.67
2022-10-29T07:38:38.493Z,8.97
2022-10-29T07:41:10.913Z,9.13
2022-10-29T07:43:44.986Z,8.07
2022-10-29T07:46:19.690Z,8.87
2022-10-29T07:48:52.198Z,8.53
2022-10-29T07:51:24.682Z,7.97
2022-10-29T07:53:57.336Z,8.23
2022-10-29T07:56:29.800Z,7.60
2022-10-29T07:59:03.967Z,7.30
2022-10-29T08:01:36.620Z,8.43
2022-10-29T08:04:11.427Z,8.27
2022-10-29T08:06:44.189Z,8.80
2022-10-29T08:09:16.791Z,8.67
2022-10-29T08:11:49.320Z,8.10
2022-10-29T08:14:23.406Z,8.63
2022-10-29T08:16:55.971Z,9.23
2022-10-29T08:19:29.872Z,8.70
2022-10-29T08:22:02.518Z,7.83
2022-10-29T08:24:35.135Z,8.60
2022-10-29T08:27:07.818Z,8.03
2022-10-29T08:29:41.760Z,7.87
2022-10-29T08:32:14.314Z,7.83
2022-10-29T08:34:47.037Z,8.17
2022-10-29T08:37:19.639Z,8.57
2022-10-29T08:39:52.161Z,8.13
2022-10-29T08:42:33.200Z,7.17
2022-10-29T08:45:14.123Z,8.43
2022-10-29T08:47:54.149Z,8.40
2022-10-29T08:50:29.836Z,8.27
2022-10-29T08:53:22.334Z,8.50
2022-10-29T08:55:55.665Z,8.30
2022-10-29T08:58:31.208Z,8.07
2022-10-29T09:01:11.024Z,8.30
2022-10-29T09:03:43.802Z,8.20
2022-10-29T09:06:20.038Z,9.27
2022-10-29T09:09:01.425Z,8.77
2022-10-29T09:11:48.915Z,8.90
2022-10-29T09:14:32.810Z,9.47
2022-10-29T09:17:11.590Z,9.73
2022-10-29T09:19:54.086Z,8.97
2022-10-29T09:22:30.377Z,9.03
2022-10-29T09:25:10.906Z,9.33
2022-10-29T09:27:49.630Z,8.80
2022-10-29T09:30:22.267Z,8.90
2022-10-29T09:32:58.552Z,8.53
2022-10-29T09:35:36.061Z,8.97
2022-10-29T09:38:13.754Z,9.73
2022-10-29T09:40:46.654Z,8.57
2022-10-29T09:43:27.733Z,9.73
2022-10-29T09:46:02.434Z,8.57
2022-10-29T09:48:38.807Z,8.80
2022-10-29T09:51:16.006Z,8.93
2022-10-29T09:53:50.524Z,8.20
2022-10-29T09:56:23.182Z,8.93
2022-10-29T09:58:58.602Z,8.23
2022-10-29T10:01:31.212Z,7.80
2022-10-29T10:04:12.148Z,8.23
2022-10-29T10:06:59.687Z,8.37
2022-10-29T10:09:49.245Z,7.90
2022-10-29T10:12:23.736Z,8.03
2022-10-29T10:15:17.940Z,8.23
2022-10-29T10:18:01.389Z,7.57
2022-10-29T10:20:37.401Z,8.27
2022-10-29T10:23:21.110Z,7.30
2022-10-29T10:25:54.390Z,7.83
2022-10-29T10:28:29.740Z,7.53
2022-10-29T10:31:13.238Z,7.67
2022-10-29T10:33:50.115Z,7.30
2022-10-29T10:36:25.423Z,7.93
2022-10-29T10:39:02.134Z,6.73
2022-10-29T10:41:35.424Z,7.27
2022-10-29T10:44:08.113Z,7.13
2022-10-29T10:46:46.446Z,6.37
2022-10-29T10:49:24.167Z,7.63
2022-10-29T10:51:58.947Z,7.93
2022-10-29T10:54:35.702Z,7.90
2022-10-29T10:57:20.346Z,7.87
2022-10-29T11:00:00.280Z,7.50
2022-10-29T11:02:40.997Z,7.27
2022-10-29T11:05:17.834Z,8.40
2022-10-29T11:07:56.238Z,7.07
2022-10-29T11:10:32.540Z,9.00
2022-10-29T11:13:07.566Z,7.03
2022-10-29T11:15:44.287Z,7.47
2022-10-29T11:18:19.715Z,8.10
2022-10-29T11:21:00.421Z,7.73
2022-10-29T11:23:38.416Z,7.33
2022-10-29T11:26:14.419Z,8.30
2022-10-29T11:28:49.815Z,7.07
2022-10-29T11:31:25.214Z,7.33
2022-10-29T11:34:01.511Z,7.43
2022-10-29T11:36:37.977Z,7.97
2022-10-29T11:39:14.216Z,8.53
2022-10-29T11:41:49.271Z,7.60
2022-10-29T11:44:22.076Z,7.93
2022-10-29T11:47:04.137Z,7.93
2022-10-29T11:49:43.507Z,8.10
2022-10-29T11:52:18.214Z,7.50
2022-10-29T11:55:02.965Z,8.83
2022-10-29T11:57:39.188Z,7.97
2022-10-29T12:00:14.369Z,7.20
2022-10-29T12:03:04.900Z,8.13
2022-10-29T12:05:40.079Z,7.13
2022-10-29T12:08:20.988Z,8.20
2022-10-29T12:10:58.564Z,7.43
2022-10-29T12:13:35.980Z,6.90
2022-10-29T12:16:13.491Z,7.33
2022-10-29T12:18:51.949Z,7.57
2022-10-29T12:21:29.865Z,7.77
2022-10-29T12:24:07.067Z,8.73
2022-10-29T12:26:45.470Z,8.43
2022-10-29T12:29:23.140Z,8.33
2022-10-29T12:32:00.868Z,7.43
2022-10-29T12:34:37.278Z,8.73
2022-10-29T12:37:12.739Z,7.70
2022-10-29T12:39:49.164Z,7.87
2022-10-29T12:42:25.298Z,9.17
2022-10-29T12:45:12.821Z,8.13
2022-10-29T12:47:50.393Z,8.20
2022-10-29T12:50:35.241Z,7.37
2022-10-29T12:53:17.010Z,8.67
2022-10-29T12:55:49.937Z,8.27
2022-10-29T12:58:38.212Z,7.97
2022-10-29T13:02:05.824Z,7.90
2022-10-29T13:04:35.496Z,9.33
2022-10-29T13:07:24.245Z,8.10
2022-10-29T13:10:12.150Z,8.50
2022-10-29T13:12:55.159Z,11.57
2022-10-29T13:15:29.939Z,11.07
2022-10-29T13:18:07.158Z,8.57
2022-10-29T13:20:40.522Z,8.23
2022-10-29T13:23:30.544Z,8.40
2022-10-29T13:26:03.533Z,7.77
2022-10-29T13:28:50.397Z,8.87
2022-10-29T13:31:43.128Z,8.57
2022-10-29T13:34:34.696Z,8.10
2022-10-29T13:37:31.146Z,8.10
2022-10-29T13:40:22.270Z,7.37
2022-10-29T13:42:58.881Z,7.13
2022-10-29T13:45:33.683Z,6.87
2022-10-29T13:48:07.397Z,9.07
2022-10-29T13:50:40.313Z,8.67
2022-10-29T13:53:14.606Z,8.70
2022-10-29T13:55:47.766Z,7.33
2022-10-29T13:58:26.183Z,7.53
2022-10-29T14:00:59.710Z,8.03
2022-10-29T14:03:34.925Z,7.90
2022-10-29T14:06:10.544Z,8.43
2022-10-29T14:08:45.400Z,8.67
2022-10-29T14:11:21.829Z,8.50
2022-10-29T14:13:57.670Z,8.53
2022-10-29T14:16:32.501Z,7.83
2022-10-29T14:19:13.819Z,8.13
2022-10-29T14:21:47.217Z,7.93
2022-10-29T14:24:19.896Z,8.47
2022-10-29T14:27:06.667Z,8.13
2022-10-29T14:29:40.721Z,8.13
2022-10-29T14:32:13.867Z,9.30
2022-10-29T14:34:51.783Z,8.20
2022-10-29T14:37:27.099Z,8.83
2022-10-29T14:40:06.905Z,8.50
2022-10-29T14:42:41.584Z,8.33
2022-10-29T14:45:20.169Z,8.87
2022-10-29T14:47:53.740Z,9.63
2022-10-29T14:50:27.241Z,8.00
2022-10-29T14:53:02.127Z,7.60
2022-10-29T14:55:36.321Z,7.77
2022-10-29T14:58:15.298Z,8.30
2022-10-29T15:00:54.899Z,7.70
2022-10-29T15:03:29.020Z,8.03
2022-10-29T15:06:13.416Z,11.57
2022-10-29T15:08:46.874Z,12.97
2022-10-29T15:11:38.934Z,12.73
2022-10-29T15:17:02.016Z,13.57
2022-10-29T15:19:34.806Z,14.30
2022-10-29T15:22:10.857Z,14.70
2022-10-29T15:24:45.637Z,15.37
2022-10-29T15:27:18.307Z,12.77
2022-10-29T15:29:52.498Z,12.43
2022-10-29T15:32:31.523Z,11.20
2022-10-29T15:35:10.417Z,11.27
2022-10-29T15:37:45.755Z,11.93
2022-10-29T15:40:18.972Z,13.47
2022-10-29T15:42:51.887Z,16.37
2022-10-29T15:45:28.195Z,18.33
2022-10-29T15:48:27.949Z,16.97
2022-10-29T15:51:01.870Z,16.83
2022-10-29T15:53:34.424Z,16.70
2022-10-29T15:56:07.514Z,13.90
2022-10-29T15:58:42.873Z,12.80
2022-10-29T16:01:17.075Z,12.07
2022-10-29T16:03:52.767Z,13.40
2022-10-29T16:06:25.320Z,12.27
2022-10-29T16:08:58.335Z,11.30
2022-10-29T16:11:31.078Z,11.87
2022-10-29T16:14:04.713Z,10.93
2022-10-29T16:16:38.218Z,11.00
2022-10-29T16:19:12.193Z,11.00
2022-10-29T16:21:44.766Z,10.70
2022-10-29T16:24:20.048Z,11.10
2022-10-29T16:26:52.749Z,10.13
2022-10-29T16:29:25.330Z,11.63
2022-10-29T16:31:57.981Z,10.87
2022-10-29T16:34:31.905Z,11.10
2022-10-29T16:37:04.515Z,12.87
2022-10-29T16:39:37.167Z,12.67
2022-10-29T16:42:20.264Z,13.50
2022-10-29T16:44:52.683Z,15.00
2022-10-29T16:47:25.346Z,13.83
2022-10-29T16:49:59.360Z,14.23
2022-10-29T16:52:32.873Z,13.47
2022-10-29T16:55:06.066Z,14.50
2022-10-29T16:57:38.692Z,13.57
2022-10-29T17:00:11.740Z,14.07
2022-10-29T17:02:45.578Z,15.90
2022-10-29T17:05:19.532Z,16.43
2022-10-29T17:07:53.988Z,15.47
2022-10-29T17:10:26.635Z,15.57
2022-10-29T17:12:59.598Z,16.80
2022-10-29T17:15:32.504Z,14.73
2022-10-29T17:18:06.036Z,15.90
2022-10-29T17:20:41.904Z,21.90
2022-10-29T17:23:14.672Z,25.00
2022-10-29T17:25:47.361Z,17.97
2022-10-29T17:28:20.625Z,20.07
2022-10-29T17:30:53.383Z,22.93
2022-10-29T17:33:27.951Z,21.40
2022-10-29T17:36:06.101Z,20.90
2022-10-29T17:38:38.700Z,21.97
2022-10-29T17:41:12.578Z,25.43
2022-10-29T17:43:45.164Z,26.57
2022-10-29T17:46:19.504Z,20.17
2022-10-29T17:48:55.152Z,18.67
2022-10-29T17:51:29.547Z,17.70
2022-10-29T17:54:02.152Z,14.93
2022-10-29T17:56:34.733Z,16.90
2022-10-29T17:59:07.284Z,16.20
2022-10-29T18:01:39.997Z,15.37
2022-10-29T18:04:12.731Z,15.73
2022-10-29T18:06:46.617Z,16.63
2022-10-29T18:09:21.185Z,19.50
2022-10-29T18:11:54.021Z,18.87
2022-10-29T18:14:26.712Z,18.13
2022-10-29T18:16:59.421Z,19.93
2022-10-29T18:19:32.023Z,19.00
2022-10-29T18:22:06.063Z,17.13
2022-10-29T18:24:38.947Z,18.60
2022-10-29T18:27:11.612Z,19.40
2022-10-29T18:29:44.280Z,17.87
2022-10-29T18:32:16.959Z,18.97
2022-10-29T18:34:49.988Z,18.27
2022-10-29T18:37:24.996Z,17.70
2022-10-29T18:39:58.886Z,17.97
2022-10-29T18:42:31.520Z,17.33
2022-10-29T18:45:04.479Z,18.23
2022-10-29T18:47:37.359Z,17.60
2022-10-29T18:50:10.060Z,18.53
2022-10-29T18:52:44.972Z,17.83
2022-10-29T18:55:17.603Z,18.30
2022-10-29T18:57:50.154Z,19.77
2022-10-29T19:00:24.689Z,18.03
2022-10-29T19:02:58.531Z,18.57
2022-10-29T19:05:31.592Z,18.87
2022-10-29T19:08:06.322Z,19.27
2022-10-29T19:10:43.159Z,19.73
2022-10-29T19:13:17.015Z,21.43
2022-10-29T19:15:50.953Z,20.97
2022-10-29T19:18:24.471Z,19.10
2022-10-29T19:21:04.939Z,19.63
2022-10-29T19:23:39.389Z,21.13
2022-10-29T19:26:13.069Z,20.60
2022-10-29T19:28:46.363Z,20.07
2022-10-29T19:31:20.508Z,20.00
2022-10-29T19:33:56.593Z,19.47
2022-10-29T19:36:29.660Z,19.03
2022-10-29T19:39:03.782Z,19.30
2022-10-29T19:41:36.453Z,18.57
2022-10-29T19:44:09.125Z,18.70
2022-10-29T19:46:43.139Z,17.80
2022-10-29T19:49:15.722Z,18.30
2022-10-29T19:51:49.168Z,18.20
2022-10-29T19:54:23.233Z,18.40
2022-10-29T19:56:55.804Z,17.47
2022-10-29T19:59:28.387Z,17.57
2022-10-29T20:02:01.101Z,17.90
2022-10-29T20:04:34.023Z,18.10
2022-10-29T20:07:06.666Z,19.30
2022-10-29T20:09:40.601Z,18.30
2022-10-29T20:12:16.106Z,18.17
2022-10-29T20:14:50.957Z,17.17
2022-10-29T20:17:23.516Z,19.67
2022-10-29T20:19:56.114Z,18.87
2022-10-29T20:22:28.746Z,18.13
2022-10-29T20:25:02.857Z,17.37
2022-10-29T20:27:35.461Z,18.10
2022-10-29T20:30:08.655Z,18.10
2022-10-29T20:32:41.231Z,18.77
2022-10-29T20:35:13.927Z,17.87
2022-10-29T20:37:47.242Z,17.87
2022-10-29T20:40:21.119Z,18.77
2022-10-29T20:42:53.753Z,18.83
2022-10-29T20:45:28.391Z,18.40
2022-10-29T20:48:02.537Z,18.30
2022-10-29T20:50:35.285Z,18.50
2022-10-29T20:55:49.812Z,19.43
2022-10-29T20:58:22.718Z,18.93
2022-10-29T21:00:55.317Z,19.13
2022-10-29T21:03:27.892Z,19.53
2022-10-29T21:06:01.477Z,19.43
2022-10-29T21:08:36.869Z,19.40
2022-10-29T21:11:11.963Z,19.53
2022-10-29T21:13:44.790Z,18.60
2022-10-29T21:16:21.133Z,19.30
2022-10-29T21:18:56.523Z,21.10
2022-10-29T21:21:29.925Z,19.50
2022-10-29T21:24:05.465Z,19.73
2022-10-29T21:26:39.417Z,19.67
2022-10-29T21:29:11.986Z,19.47
2022-10-29T21:31:44.563Z,20.50
2022-10-29T21:34:17.132Z,19.67
2022-10-29T21:36:50.977Z,20.23
2022-10-29T21:39:23.551Z,20.93
2022-10-29T21:41:57.814Z,20.50
2022-10-29T21:44:30.389Z,21.03
2022-10-29T21:47:02.971Z,21.07
2022-10-29T21:49:35.588Z,21.50
2022-10-29T21:52:08.202Z,20.63
2022-10-29T21:54:40.806Z,21.70
2022-10-29T21:57:14.905Z,22.03
2022-10-29T21:59:47.442Z,21.63
2022-10-29T22:02:20.192Z,21.67
2022-10-29T22:04:52.673Z,20.50
2022-10-29T22:07:25.274Z,21.60
2022-10-29T22:09:57.854Z,20.87
2022-10-29T22:12:32.006Z,20.83
2022-10-29T22:15:04.831Z,21.50
2022-10-29T22:17:37.436Z,20.73
2022-10-29T22:20:10.747Z,20.03
2022-10-29T22:22:44.285Z,21.17
2022-10-29T22:25:21.223Z,20.70
2022-10-29T22:27:55.505Z,20.37
2022-10-29T22:30:28.379Z,19.07
2022-10-29T22:33:01.076Z,19.57
2022-10-29T22:35:33.631Z,19.93
2022-10-29T22:38:06.287Z,20.63
2022-10-29T22:40:40.836Z,20.43
2022-10-29T22:43:14.776Z,19.27
2022-10-29T22:45:50.721Z,19.77
2022-10-29T22:48:23.327Z,18.77
2022-10-29T22:51:02.887Z,17.70
2022-10-29T22:53:35.526Z,18.63
2022-10-29T22:56:08.415Z,19.03
2022-10-29T22:58:42.517Z,19.30
2022-10-29T23:01:16.248Z,20.37
2022-10-29T23:03:49.368Z,19.07
2022-10-29T23:06:23.394Z,20.10
2022-10-29T23:08:58.210Z,19.90
2022-10-29T23:11:32.238Z,20.60
2022-10-29T23:14:06.584Z,19.67
2022-10-29T23:16:39.190Z,19.90
2022-10-29T23:19:12.029Z,18.57
2022-10-29T23:21:45.008Z,20.87
2022-10-29T23:24:17.647Z,19.70
2022-10-29T23:26:50.333Z,20.83
2022-10-29T23:29:24.456Z,19.87
2022-10-29T23:31:56.977Z,20.63
2022-10-29T23:34:29.860Z,19.97
2022-10-29T23:37:08.687Z,19.87
2022-10-29T23:39:42.694Z,20.27
2022-10-29T23:42:15.319Z,19.43
2022-10-29T23:44:49.159Z,20.77
2022-10-29T23:47:34.432Z,20.23
2022-10-29T23:50:08.109Z,20.37
2022-10-29T23:52:40.698Z,20.50
2022-10-29T23:55:13.315Z,21.50
2022-10-29T23:57:46.032Z,20.17
